Fryburg, Pennsylvania
Current Conditions -  °F | °C
As of 3:55 PM on Thursday 23 Oct 2014 (Local Time) from KFKL Reporting Station
Clear Clear  
Wind Chill: 57°   Ceiling: Unl
Heat Index: 57°   Visibility: 10mi
Dew Point: 37°   Wind: 7mph
Humidity: 48%   Direction: 310°NW
Pressure: 30.08"   Gusts: 16mph
Location:  41.35°N, 79.44°W
Report Text: KFKL 231955Z 31006G14KT 10SM CLR 14/03 A3008 RMK AO1
Loading
Personal Weather Stations






























Interactive Weather Map
Tropical Storm Tracking
New forecast layout! Learn more

10-Day Weather Forecast

Advertisements
Track Severe Weather on mobile